createdAt,value
2018-09-26T00:02:02.786Z,93.80
2018-09-26T00:04:08.370Z,93.60
2018-09-26T00:06:10.466Z,93.40
2018-09-26T00:08:12.557Z,93.50
2018-09-26T00:10:14.691Z,93.70
2018-09-26T00:12:16.802Z,93.50
2018-09-26T00:14:18.926Z,93.60
2018-09-26T00:16:21.050Z,93.30
2018-09-26T00:18:23.451Z,93.30
2018-09-26T00:20:25.552Z,93.10
2018-09-26T00:22:27.658Z,93.10
2018-09-26T00:24:29.937Z,92.90
2018-09-26T00:26:32.035Z,92.90
2018-09-26T00:28:34.126Z,92.80
2018-09-26T00:30:36.264Z,93.10
2018-09-26T00:32:38.662Z,92.90
2018-09-26T00:34:40.782Z,93.10
2018-09-26T00:36:42.882Z,93.20
2018-09-26T00:38:44.998Z,92.60
2018-09-26T00:40:47.102Z,92.80
2018-09-26T00:42:49.205Z,92.80
2018-09-26T00:44:51.335Z,92.80
2018-09-26T00:46:53.474Z,92.40
2018-09-26T00:48:55.594Z,92.50
2018-09-26T00:50:58.234Z,92.70
2018-09-26T00:53:00.388Z,92.60
2018-09-26T00:55:02.527Z,92.20
2018-09-26T00:57:05.190Z,92.60
2018-09-26T00:59:07.327Z,92.40
2018-09-26T01:01:09.434Z,92.50
2018-09-26T01:03:11.556Z,92.50
2018-09-26T01:05:13.659Z,92.90
2018-09-26T01:07:15.769Z,92.90
2018-09-26T01:09:17.908Z,92.80
2018-09-26T01:11:20.058Z,92.30
2018-09-26T01:13:22.154Z,92.50
2018-09-26T01:15:24.282Z,92.70
2018-09-26T01:17:26.387Z,92.40
2018-09-26T01:19:28.682Z,92.60
2018-09-26T01:21:31.195Z,92.70
2018-09-26T01:23:33.290Z,92.20
2018-09-26T01:25:35.402Z,92.40
2018-09-26T01:27:38.002Z,92.50
2018-09-26T01:29:40.138Z,92.50
2018-09-26T01:31:42.241Z,92.80
2018-09-26T01:33:44.374Z,92.80
2018-09-26T01:35:46.475Z,92.90
2018-09-26T01:38:12.325Z,93.10
2018-09-26T01:40:14.737Z,93.00
2018-09-26T01:42:16.857Z,93.40
2018-09-26T01:44:18.973Z,93.50
2018-09-26T01:46:21.169Z,93.50
2018-09-26T01:48:23.273Z,93.60
2018-09-26T01:50:25.379Z,93.80
2018-09-26T01:52:27.486Z,93.90
2018-09-26T01:54:29.586Z,93.80
2018-09-26T01:56:31.730Z,94.00
2018-09-26T01:58:33.846Z,93.80
2018-09-26T02:00:35.945Z,93.90
2018-09-26T02:02:38.062Z,94.20
2018-09-26T02:04:40.164Z,94.00
2018-09-26T02:06:42.458Z,94.20
2018-09-26T02:08:44.553Z,94.10
2018-09-26T02:10:46.670Z,94.30
2018-09-26T02:12:48.790Z,94.20
2018-09-26T02:14:50.918Z,94.20
2018-09-26T02:16:53.022Z,94.30
2018-09-26T02:18:55.521Z,94.30
2018-09-26T02:20:57.620Z,94.20
2018-09-26T02:22:59.717Z,94.30
2018-09-26T02:25:02.501Z,94.50
2018-09-26T02:27:04.935Z,94.40
2018-09-26T02:29:07.165Z,94.60
2018-09-26T02:31:09.265Z,94.70
2018-09-26T02:33:11.404Z,94.60
2018-09-26T02:35:13.503Z,94.60
2018-09-26T02:37:15.590Z,94.70
2018-09-26T02:39:17.710Z,95.00
2018-09-26T02:41:20.121Z,95.20
2018-09-26T02:43:22.230Z,95.00
2018-09-26T02:45:24.341Z,95.20
2018-09-26T02:47:26.622Z,95.00
2018-09-26T02:49:28.754Z,95.20
2018-09-26T02:51:30.877Z,95.00
2018-09-26T02:53:33.529Z,95.00
2018-09-26T02:55:35.673Z,95.30
2018-09-26T02:57:37.777Z,95.00
2018-09-26T02:59:40.476Z,95.30
2018-09-26T03:01:42.583Z,95.20
2018-09-26T03:03:44.685Z,95.20
2018-09-26T03:05:46.782Z,95.20
2018-09-26T03:07:48.881Z,95.00
2018-09-26T03:09:51.004Z,95.20
2018-09-26T03:11:53.305Z,95.00
2018-09-26T03:13:55.402Z,95.10
2018-09-26T03:15:57.502Z,95.10
2018-09-26T03:17:59.629Z,94.80
2018-09-26T03:20:01.735Z,95.10
2018-09-26T03:22:03.872Z,95.20
2018-09-26T03:24:06.022Z,95.10
2018-09-26T03:26:08.203Z,95.00
2018-09-26T03:28:10.315Z,95.00
2018-09-26T03:30:12.447Z,94.90
2018-09-26T03:32:14.557Z,95.00
2018-09-26T03:34:16.653Z,94.70
2018-09-26T03:36:18.772Z,94.80
2018-09-26T03:38:20.874Z,94.90
2018-09-26T03:40:22.978Z,94.30
2018-09-26T03:42:25.103Z,94.30
2018-09-26T03:44:27.206Z,94.40
2018-09-26T03:46:29.305Z,94.30
2018-09-26T03:48:31.437Z,94.20
2018-09-26T03:50:33.534Z,93.90
2018-09-26T03:52:36.022Z,94.00
2018-09-26T03:54:38.245Z,93.90
2018-09-26T03:56:40.338Z,93.90
2018-09-26T03:58:42.453Z,93.90
2018-09-26T04:00:44.611Z,93.80
2018-09-26T04:02:46.721Z,93.70
2018-09-26T04:04:48.896Z,93.80
2018-09-26T04:06:50.966Z,94.10
2018-09-26T04:08:53.065Z,93.90
2018-09-26T04:10:55.182Z,93.90
2018-09-26T04:12:57.333Z,93.90
2018-09-26T04:14:59.409Z,93.80
2018-09-26T04:17:01.518Z,93.80
2018-09-26T04:19:03.825Z,93.80
2018-09-26T04:21:05.966Z,93.80
2018-09-26T04:23:08.062Z,93.80
2018-09-26T04:25:10.214Z,94.00
2018-09-26T04:27:12.393Z,93.50
2018-09-26T04:29:14.429Z,93.50
2018-09-26T04:31:16.686Z,93.50
2018-09-26T04:33:19.187Z,93.50
2018-09-26T04:35:21.002Z,93.40
2018-09-26T04:37:23.139Z,93.40
2018-09-26T04:39:25.602Z,93.30
2018-09-26T04:41:27.734Z,93.10
2018-09-26T04:43:29.947Z,92.80
2018-09-26T04:45:32.293Z,92.70
2018-09-26T04:47:34.389Z,92.10
2018-09-26T04:49:36.474Z,92.20
2018-09-26T04:51:38.722Z,91.90
2018-09-26T04:53:40.826Z,91.90
2018-09-26T04:55:42.963Z,91.70
2018-09-26T04:57:46.278Z,91.50
2018-09-26T04:59:48.582Z,91.60
2018-09-26T05:01:50.761Z,91.40
2018-09-26T05:03:52.958Z,91.70
2018-09-26T05:05:55.109Z,91.60
2018-09-26T05:07:57.205Z,91.50
2018-09-26T05:09:59.329Z,91.50
2018-09-26T05:12:01.441Z,91.40
2018-09-26T05:14:03.744Z,91.40
2018-09-26T05:16:05.985Z,91.40
2018-09-26T05:18:08.078Z,91.40
2018-09-26T05:20:10.202Z,91.00
2018-09-26T05:22:12.302Z,90.90
2018-09-26T05:24:14.406Z,91.30
2018-09-26T05:26:16.646Z,91.30
2018-09-26T05:28:18.747Z,91.40
2018-09-26T05:30:20.911Z,91.30
2018-09-26T05:32:23.066Z,91.40
2018-09-26T05:34:25.191Z,91.40
2018-09-26T05:36:27.322Z,91.50
2018-09-26T05:38:29.870Z,91.30
2018-09-26T05:40:31.981Z,91.50
2018-09-26T05:42:34.102Z,91.60
2018-09-26T05:44:36.375Z,91.30
2018-09-26T05:46:38.575Z,91.50
2018-09-26T05:48:40.705Z,91.60
2018-09-26T05:50:43.205Z,91.60
2018-09-26T05:52:45.318Z,91.60
2018-09-26T05:54:47.433Z,91.10
2018-09-26T05:56:49.573Z,91.20
2018-09-26T05:58:51.690Z,91.20
2018-09-26T06:00:53.838Z,91.20
2018-09-26T06:02:55.943Z,90.90
2018-09-26T06:04:58.075Z,90.70
2018-09-26T06:07:00.387Z,90.80
2018-09-26T06:09:02.753Z,90.80
2018-09-26T06:11:05.310Z,90.80
2018-09-26T06:13:07.487Z,91.00
2018-09-26T06:15:09.622Z,90.80
2018-09-26T06:17:11.726Z,90.50
2018-09-26T06:19:13.846Z,90.30
2018-09-26T06:21:16.458Z,90.30
2018-09-26T06:23:18.566Z,90.20
2018-09-26T06:25:20.697Z,90.20
2018-09-26T06:27:23.236Z,89.80
2018-09-26T06:29:25.363Z,89.90
2018-09-26T06:31:27.486Z,90.10
2018-09-26T06:33:29.642Z,90.10
2018-09-26T06:35:31.881Z,90.30
2018-09-26T06:37:34.033Z,90.20
2018-09-26T06:39:36.290Z,90.20
2018-09-26T06:41:38.450Z,90.20
2018-09-26T06:43:40.582Z,90.20
2018-09-26T06:45:42.718Z,90.20
2018-09-26T06:47:44.940Z,90.00
2018-09-26T06:49:47.061Z,89.90
2018-09-26T06:51:49.441Z,89.80
2018-09-26T06:53:51.696Z,90.10
2018-09-26T06:55:53.806Z,89.80
2018-09-26T06:57:55.934Z,89.40
2018-09-26T06:59:58.222Z,89.50
2018-09-26T07:02:00.354Z,89.20
2018-09-26T07:04:02.490Z,89.00
2018-09-26T07:06:04.646Z,88.80
2018-09-26T07:08:06.774Z,88.40
2018-09-26T07:10:08.907Z,88.30
2018-09-26T07:12:11.166Z,88.30
2018-09-26T07:14:13.179Z,88.00
2018-09-26T07:16:15.354Z,88.00
2018-09-26T07:18:17.974Z,87.50
2018-09-26T07:20:20.878Z,87.20
2018-09-26T07:22:23.007Z,86.50
2018-09-26T07:24:25.238Z,86.10
2018-09-26T07:26:27.380Z,86.00
2018-09-26T07:28:29.511Z,86.20
2018-09-26T07:30:31.665Z,85.80
2018-09-26T07:32:33.784Z,85.90
2018-09-26T07:34:37.155Z,85.20
2018-09-26T07:36:39.651Z,84.90
2018-09-26T07:38:41.838Z,84.70
2018-09-26T07:40:44.035Z,84.80
2018-09-26T07:42:46.166Z,84.50
2018-09-26T07:44:48.290Z,84.40
2018-09-26T07:46:50.434Z,84.60
2018-09-26T07:48:52.592Z,84.50
2018-09-26T07:50:54.727Z,84.50
2018-09-26T07:52:56.885Z,83.80
2018-09-26T07:54:59.005Z,83.90
2018-09-26T07:57:01.142Z,83.60
2018-09-26T07:59:03.728Z,82.80
2018-09-26T08:01:06.219Z,82.90
2018-09-26T08:03:08.361Z,82.80
2018-09-26T08:05:10.499Z,82.40
2018-09-26T08:07:12.635Z,82.40
2018-09-26T08:09:14.778Z,82.30
2018-09-26T08:11:16.920Z,82.10
2018-09-26T08:13:19.066Z,81.40
2018-09-26T08:15:21.193Z,81.10
2018-09-26T08:17:23.300Z,80.80
2018-09-26T08:19:25.450Z,80.90
2018-09-26T08:21:27.579Z,80.50
2018-09-26T08:23:29.706Z,80.00
2018-09-26T08:25:32.279Z,80.00
2018-09-26T08:27:34.441Z,79.90
2018-09-26T08:29:36.558Z,79.80
2018-09-26T08:31:39.033Z,79.70
2018-09-26T08:33:41.166Z,79.80
2018-09-26T08:35:43.321Z,79.60
2018-09-26T08:37:45.910Z,79.20
2018-09-26T08:39:48.050Z,78.90
2018-09-26T08:41:50.194Z,78.90
2018-09-26T08:43:52.443Z,78.60
2018-09-26T08:45:54.533Z,78.20
2018-09-26T08:47:56.831Z,78.10
2018-09-26T08:49:59.269Z,78.00
2018-09-26T08:52:01.391Z,77.70
2018-09-26T08:54:03.519Z,77.40
2018-09-26T08:56:06.125Z,78.20
2018-09-26T08:58:08.249Z,78.00
2018-09-26T09:00:10.395Z,77.50
2018-09-26T09:02:13.058Z,77.10
2018-09-26T09:04:16.427Z,77.00
2018-09-26T09:06:18.686Z,76.90
2018-09-26T09:08:20.765Z,77.20
2018-09-26T09:10:22.894Z,77.10
2018-09-26T09:12:25.121Z,77.20
2018-09-26T09:14:27.298Z,77.30
2018-09-26T09:16:29.349Z,77.20
2018-09-26T09:18:31.474Z,77.10
2018-09-26T09:20:33.627Z,77.30
2018-09-26T09:22:35.845Z,77.10
2018-09-26T09:24:37.985Z,76.80
2018-09-26T09:26:40.456Z,76.90
2018-09-26T09:28:42.568Z,76.80
2018-09-26T09:30:44.689Z,76.90
2018-09-26T09:32:46.905Z,76.90
2018-09-26T09:34:49.042Z,76.50
2018-09-26T09:36:51.157Z,77.30
2018-09-26T09:38:53.620Z,78.50
2018-09-26T09:40:55.738Z,79.90
2018-09-26T09:42:57.842Z,80.50
2018-09-26T09:44:59.933Z,80.50
2018-09-26T09:47:02.108Z,80.70
2018-09-26T09:49:04.330Z,80.70
2018-09-26T09:51:06.462Z,81.10
2018-09-26T09:53:08.561Z,80.80
2018-09-26T09:55:10.731Z,81.30
2018-09-26T09:57:12.847Z,81.10
2018-09-26T09:59:14.934Z,80.80
2018-09-26T10:01:22.897Z,80.70
2018-09-26T10:03:24.995Z,80.80
2018-09-26T10:05:27.126Z,81.20
2018-09-26T10:07:29.334Z,81.20
2018-09-26T10:09:31.493Z,81.20
2018-09-26T10:11:33.610Z,80.50
2018-09-26T10:13:35.776Z,81.10
2018-09-26T10:15:37.909Z,80.70
2018-09-26T10:17:40.084Z,81.10
2018-09-26T10:19:42.170Z,81.30
2018-09-26T10:21:44.282Z,81.40
2018-09-26T10:23:46.386Z,81.10
2018-09-26T10:25:48.511Z,81.10
2018-09-26T10:27:50.642Z,81.40
2018-09-26T10:29:52.750Z,81.70
2018-09-26T10:31:54.885Z,81.60
2018-09-26T10:33:57.009Z,81.60
2018-09-26T10:35:59.113Z,81.30
2018-09-26T10:38:01.314Z,80.60
2018-09-26T10:40:03.697Z,80.00
2018-09-26T10:42:05.874Z,79.60
2018-09-26T10:44:08.149Z,79.10
2018-09-26T10:46:10.190Z,79.10
2018-09-26T10:48:12.292Z,78.90
2018-09-26T10:50:14.514Z,78.20
2018-09-26T10:52:16.541Z,78.70
2018-09-26T10:54:18.646Z,77.90
2018-09-26T10:56:20.852Z,78.30
2018-09-26T10:58:24.025Z,77.80
2018-09-26T11:00:26.142Z,78.10
2018-09-26T11:02:28.525Z,78.70
2018-09-26T11:04:30.701Z,79.20
2018-09-26T11:06:32.826Z,79.00
2018-09-26T11:08:34.960Z,79.20
2018-09-26T11:10:37.086Z,78.70
2018-09-26T11:12:39.230Z,78.80
2018-09-26T11:14:41.301Z,78.80
2018-09-26T11:16:43.449Z,78.80
2018-09-26T11:18:45.663Z,79.70
2018-09-26T11:20:47.770Z,79.70
2018-09-26T11:22:49.874Z,79.40
2018-09-26T11:24:51.994Z,78.60
2018-09-26T11:26:54.433Z,78.60
2018-09-26T11:28:56.538Z,78.50
2018-09-26T11:30:58.653Z,79.30
2018-09-26T11:33:00.773Z,80.00
2018-09-26T11:35:02.926Z,80.00
2018-09-26T11:37:05.025Z,79.90
2018-09-26T11:39:08.743Z,79.80
2018-09-26T11:41:10.958Z,79.80
2018-09-26T11:43:13.065Z,79.80
2018-09-26T11:45:15.315Z,79.50
2018-09-26T11:47:17.474Z,78.80
2018-09-26T11:49:19.930Z,78.60
2018-09-26T11:51:22.342Z,78.80
2018-09-26T11:53:24.440Z,77.50
2018-09-26T11:55:26.914Z,77.40
2018-09-26T11:57:29.173Z,76.80
2018-09-26T11:59:31.306Z,76.00
2018-09-26T12:01:33.561Z,73.60
2018-09-26T12:03:35.659Z,71.90
2018-09-26T12:05:37.757Z,72.60
2018-09-26T12:07:39.852Z,73.10
2018-09-26T12:09:42.225Z,72.10
2018-09-26T12:11:44.334Z,71.10
2018-09-26T12:13:46.467Z,71.00
2018-09-26T12:15:49.170Z,70.50
2018-09-26T12:17:51.439Z,69.90
2018-09-26T12:19:53.534Z,69.70
2018-09-26T12:21:55.657Z,70.80
2018-09-26T12:23:57.763Z,70.00
2018-09-26T12:25:59.862Z,69.70
2018-09-26T12:28:02.299Z,70.90
2018-09-26T12:30:05.138Z,70.50
2018-09-26T12:32:07.242Z,70.30
2018-09-26T12:34:09.520Z,70.80
2018-09-26T12:36:11.642Z,71.30
2018-09-26T12:38:13.722Z,72.10
2018-09-26T12:40:15.853Z,72.80
2018-09-26T12:42:17.993Z,72.60
2018-09-26T12:44:20.053Z,71.70
2018-09-26T12:46:22.662Z,72.00
2018-09-26T12:48:24.715Z,72.40
2018-09-26T12:50:26.783Z,72.30
2018-09-26T12:52:29.183Z,72.00
2018-09-26T12:54:31.281Z,73.20
2018-09-26T12:56:33.387Z,73.90
2018-09-26T12:58:35.662Z,73.80
2018-09-26T13:00:37.786Z,74.00
2018-09-26T13:02:39.911Z,73.50
2018-09-26T13:04:41.957Z,73.80
2018-09-26T13:06:44.062Z,74.30
2018-09-26T13:08:46.163Z,74.30
2018-09-26T13:10:48.251Z,74.70
2018-09-26T13:12:50.387Z,75.00
2018-09-26T13:14:52.485Z,75.40
2018-09-26T13:16:54.602Z,75.70
2018-09-26T13:18:56.751Z,76.00
2018-09-26T13:20:58.823Z,75.80
2018-09-26T13:23:00.930Z,75.80
2018-09-26T13:25:03.051Z,76.20
2018-09-26T13:27:05.160Z,76.20
2018-09-26T13:29:07.374Z,76.00
2018-09-26T13:31:09.528Z,76.20
2018-09-26T13:33:11.587Z,76.50
2018-09-26T13:35:14.198Z,76.40
2018-09-26T13:37:16.298Z,76.60
2018-09-26T13:39:18.465Z,76.70
2018-09-26T13:41:20.498Z,76.40
2018-09-26T13:43:22.602Z,76.40
2018-09-26T13:45:24.693Z,76.20
2018-09-26T13:47:26.817Z,76.00
2018-09-26T13:49:28.901Z,75.70
2018-09-26T13:51:31.000Z,75.60
2018-09-26T13:53:33.132Z,75.20
2018-09-26T13:55:35.342Z,75.10
2018-09-26T13:57:37.436Z,75.40
2018-09-26T13:59:39.546Z,75.50
2018-09-26T14:01:41.731Z,75.60
2018-09-26T14:03:44.594Z,75.80
2018-09-26T14:05:46.721Z,75.70
2018-09-26T14:07:48.813Z,75.70
2018-09-26T14:09:52.738Z,75.80
2018-09-26T14:11:54.902Z,76.00
2018-09-26T14:13:57.138Z,76.20
2018-09-26T14:15:59.285Z,76.00
2018-09-26T14:18:01.413Z,76.00
2018-09-26T14:20:03.641Z,76.10
2018-09-26T14:22:05.934Z,76.10
2018-09-26T14:24:07.999Z,76.20
2018-09-26T14:26:10.624Z,76.40
2018-09-26T14:28:12.720Z,76.50
2018-09-26T14:30:14.871Z,76.90
2018-09-26T14:32:16.962Z,77.00
2018-09-26T14:34:19.046Z,77.00
2018-09-26T14:36:21.232Z,77.10
2018-09-26T14:38:23.410Z,77.10
2018-09-26T14:40:25.425Z,77.50
2018-09-26T14:42:27.518Z,77.50
2018-09-26T14:44:29.907Z,77.20
2018-09-26T14:46:31.994Z,77.40
2018-09-26T14:48:34.122Z,78.00
2018-09-26T14:50:36.442Z,78.20
2018-09-26T14:52:38.594Z,78.10
2018-09-26T14:54:40.674Z,78.40
2018-09-26T14:56:42.790Z,78.60
2018-09-26T14:58:44.913Z,78.70
2018-09-26T15:00:47.066Z,78.90
2018-09-26T15:02:49.236Z,79.10
2018-09-26T15:04:51.354Z,79.10
2018-09-26T15:06:53.658Z,79.60
2018-09-26T15:08:55.785Z,79.40
2018-09-26T15:10:57.893Z,79.60
2018-09-26T15:13:00.010Z,79.90
2018-09-26T15:15:02.254Z,79.90
2018-09-26T15:17:04.497Z,80.20
2018-09-26T15:19:06.746Z,80.30
2018-09-26T15:21:08.906Z,80.40
2018-09-26T15:23:11.019Z,80.30
2018-09-26T15:25:13.146Z,80.30
2018-09-26T15:27:15.256Z,80.40
2018-09-26T15:29:17.415Z,80.40
2018-09-26T15:31:19.530Z,80.50
2018-09-26T15:33:21.647Z,80.70
2018-09-26T15:35:24.067Z,80.80
2018-09-26T15:37:26.226Z,81.00
2018-09-26T15:39:28.343Z,80.90
2018-09-26T15:41:30.481Z,81.00
2018-09-26T15:43:32.618Z,81.30
2018-09-26T15:45:34.733Z,81.40
2018-09-26T15:47:36.868Z,81.30
2018-09-26T15:49:38.999Z,81.50
2018-09-26T15:51:41.138Z,81.80
2018-09-26T15:53:43.654Z,82.00
2018-09-26T15:55:45.779Z,82.20
2018-09-26T15:57:47.905Z,82.30
2018-09-26T15:59:50.049Z,82.40
2018-09-26T16:01:52.181Z,82.70
2018-09-26T16:03:54.282Z,82.90
2018-09-26T16:05:56.513Z,83.30
2018-09-26T16:07:58.605Z,83.60
2018-09-26T16:10:00.725Z,84.00
2018-09-26T16:12:02.874Z,84.10
2018-09-26T16:14:05.099Z,84.30
2018-09-26T16:16:07.176Z,84.30
2018-09-26T16:18:09.286Z,84.40
2018-09-26T16:20:11.563Z,84.50
2018-09-26T16:22:13.713Z,84.60
2018-09-26T16:24:15.783Z,84.60
2018-09-26T16:26:17.984Z,85.10
2018-09-26T16:28:20.056Z,85.10
2018-09-26T16:30:22.163Z,85.40
2018-09-26T16:32:24.309Z,85.50
2018-09-26T16:34:26.916Z,85.70
2018-09-26T16:36:29.206Z,86.00
2018-09-26T16:38:31.333Z,86.20
2018-09-26T16:40:33.500Z,86.30
2018-09-26T16:42:35.614Z,86.30
2018-09-26T16:44:37.766Z,86.20
2018-09-26T16:46:39.889Z,86.40
2018-09-26T16:48:42.367Z,86.70
2018-09-26T16:50:44.499Z,87.10
2018-09-26T16:52:46.626Z,87.50
2018-09-26T16:54:49.164Z,87.50
2018-09-26T16:56:51.286Z,87.90
2018-09-26T16:58:53.406Z,87.80
2018-09-26T17:00:55.862Z,87.90
2018-09-26T17:02:57.982Z,88.10
2018-09-26T17:05:00.094Z,88.00
2018-09-26T17:07:02.690Z,88.20
2018-09-26T17:09:07.072Z,88.50
2018-09-26T17:11:09.206Z,88.70
2018-09-26T17:13:11.726Z,89.00
2018-09-26T17:15:13.826Z,89.00
2018-09-26T17:17:16.083Z,88.90
2018-09-26T17:19:18.239Z,89.10
2018-09-26T17:21:20.362Z,89.00
2018-09-26T17:23:22.470Z,89.10
2018-09-26T17:25:24.582Z,88.90
2018-09-26T17:27:26.702Z,89.00
2018-09-26T17:29:28.802Z,88.60
2018-09-26T17:31:30.943Z,88.40
2018-09-26T17:33:33.066Z,88.60
2018-09-26T17:35:35.267Z,88.50
2018-09-26T17:37:37.416Z,88.20
2018-09-26T17:39:39.514Z,87.90
2018-09-26T17:41:42.033Z,87.60
2018-09-26T17:43:44.161Z,87.80
2018-09-26T17:45:46.310Z,87.70
2018-09-26T17:47:48.439Z,87.50
2018-09-26T17:49:51.239Z,87.30
2018-09-26T17:51:53.898Z,87.00
2018-09-26T17:53:56.101Z,86.90
2018-09-26T17:55:58.222Z,86.50
2018-09-26T17:58:00.341Z,86.40
2018-09-26T18:00:02.667Z,86.50
2018-09-26T18:02:05.051Z,86.30
2018-09-26T18:04:07.214Z,86.30
2018-09-26T18:06:09.327Z,86.20
2018-09-26T18:08:11.506Z,85.90
2018-09-26T18:10:13.813Z,86.00
2018-09-26T18:12:15.930Z,86.00
2018-09-26T18:14:18.076Z,85.90
2018-09-26T18:16:20.259Z,86.00
2018-09-26T18:18:22.400Z,86.10
2018-09-26T18:20:24.546Z,86.00
2018-09-26T18:22:26.711Z,85.80
2018-09-26T18:24:28.870Z,85.90
2018-09-26T18:26:31.002Z,85.90
2018-09-26T18:28:33.300Z,86.00
2018-09-26T18:30:35.434Z,86.00
2018-09-26T18:32:37.554Z,86.10
2018-09-26T18:34:40.006Z,86.30
2018-09-26T18:36:42.134Z,86.20
2018-09-26T18:38:44.337Z,86.20
2018-09-26T18:40:46.407Z,86.10
2018-09-26T18:42:48.523Z,86.40
2018-09-26T18:44:50.724Z,86.30
2018-09-26T18:46:52.904Z,86.30
2018-09-26T18:48:55.034Z,86.50
2018-09-26T18:50:57.154Z,86.30
2018-09-26T18:52:59.662Z,86.50
2018-09-26T18:55:01.782Z,86.60
2018-09-26T18:57:03.903Z,86.60
2018-09-26T18:59:06.192Z,86.70
2018-09-26T19:01:08.239Z,86.60
2018-09-26T19:03:10.445Z,86.70
2018-09-26T19:05:12.506Z,86.80
2018-09-26T19:07:14.638Z,86.70
2018-09-26T19:09:16.784Z,86.70
2018-09-26T19:11:18.899Z,86.90
2018-09-26T19:13:21.054Z,86.90
2018-09-26T19:15:23.242Z,86.90
2018-09-26T19:17:25.373Z,86.80
2018-09-26T19:19:27.590Z,86.80
2018-09-26T19:21:29.784Z,86.80
2018-09-26T19:23:31.839Z,86.90
2018-09-26T19:25:33.961Z,87.00
2018-09-26T19:27:36.181Z,86.90
2018-09-26T19:29:38.239Z,86.90
2018-09-26T19:31:40.367Z,87.10
2018-09-26T19:33:42.707Z,87.20
2018-09-26T19:35:44.826Z,87.20
2018-09-26T19:37:46.966Z,87.00
2018-09-26T19:39:49.101Z,87.00
2018-09-26T19:41:51.222Z,87.00
2018-09-26T19:43:53.547Z,87.10
2018-09-26T19:45:55.702Z,87.10
2018-09-26T19:47:57.855Z,87.20
2018-09-26T19:49:59.970Z,87.30
2018-09-26T19:52:02.144Z,87.30
2018-09-26T19:54:04.242Z,87.60
2018-09-26T19:56:06.451Z,87.70
2018-09-26T19:58:08.619Z,87.60
2018-09-26T20:00:10.698Z,87.70
2018-09-26T20:02:12.795Z,87.90
2018-09-26T20:04:15.266Z,88.00
2018-09-26T20:06:17.387Z,88.10
2018-09-26T20:08:19.506Z,88.30
2018-09-26T20:10:21.682Z,88.80
2018-09-26T20:12:23.756Z,88.80
2018-09-26T20:14:25.875Z,88.90
2018-09-26T20:16:28.398Z,89.20
2018-09-26T20:18:30.453Z,89.30
2018-09-26T20:20:32.591Z,89.30
2018-09-26T20:22:34.729Z,89.40
2018-09-26T20:24:37.255Z,89.90
2018-09-26T20:26:39.461Z,90.10
2018-09-26T20:28:41.557Z,90.30
2018-09-26T20:30:43.757Z,90.10
2018-09-26T20:32:45.890Z,90.40
2018-09-26T20:34:47.998Z,92.10
2018-09-26T20:36:50.163Z,92.50
2018-09-26T20:38:52.260Z,93.70
2018-09-26T20:40:54.392Z,94.30
2018-09-26T20:42:56.515Z,94.90
2018-09-26T20:44:58.751Z,95.10
2018-09-26T20:47:00.850Z,95.20
2018-09-26T20:49:02.973Z,95.10
2018-09-26T20:51:05.427Z,95.40
2018-09-26T20:53:07.864Z,95.70
2018-09-26T20:55:10.030Z,95.90
2018-09-26T20:57:12.194Z,96.20
2018-09-26T20:59:14.358Z,96.90
2018-09-26T21:01:16.689Z,97.30
2018-09-26T21:03:18.935Z,97.50
2018-09-26T21:05:21.110Z,97.40
2018-09-26T21:07:23.287Z,97.30
2018-09-26T21:09:25.651Z,97.50
2018-09-26T21:11:27.854Z,97.20
2018-09-26T21:13:30.051Z,97.60
2018-09-26T21:15:32.231Z,97.60
2018-09-26T21:17:34.499Z,97.40
2018-09-26T21:19:36.614Z,97.50
2018-09-26T21:21:38.813Z,97.40
2018-09-26T21:23:41.074Z,97.20
2018-09-26T21:25:43.278Z,96.90
2018-09-26T21:27:46.024Z,96.80
2018-09-26T21:29:48.260Z,96.70
2018-09-26T21:31:50.414Z,96.70
2018-09-26T21:33:52.580Z,96.80
2018-09-26T21:35:54.739Z,96.70
2018-09-26T21:37:56.911Z,96.60
2018-09-26T21:39:59.398Z,96.60
2018-09-26T21:42:01.571Z,96.50
2018-09-26T21:44:03.886Z,96.50
2018-09-26T21:46:06.068Z,96.70
2018-09-26T21:48:08.316Z,96.60
2018-09-26T21:50:10.670Z,96.70
2018-09-26T21:52:12.758Z,96.70
2018-09-26T21:54:14.926Z,96.70
2018-09-26T21:56:17.123Z,96.80
2018-09-26T21:58:19.288Z,97.00
2018-09-26T22:00:21.696Z,97.00
2018-09-26T22:02:23.887Z,97.00
2018-09-26T22:04:26.396Z,97.30
2018-09-26T22:06:28.566Z,97.50
2018-09-26T22:08:30.843Z,97.40
2018-09-26T22:10:33.204Z,97.70
2018-09-26T22:12:35.398Z,97.70
2018-09-26T22:14:37.802Z,97.50
2018-09-26T22:16:40.072Z,97.60
2018-09-26T22:18:42.290Z,97.70
2018-09-26T22:20:44.514Z,98.20
2018-09-26T22:22:46.953Z,98.30
2018-09-26T22:24:49.142Z,98.30
2018-09-26T22:26:51.322Z,98.30
2018-09-26T22:28:53.503Z,98.30
2018-09-26T22:30:55.739Z,98.30
2018-09-26T22:32:58.033Z,98.30
2018-09-26T22:35:00.212Z,98.30
2018-09-26T22:37:02.402Z,98.30
2018-09-26T22:39:06.947Z,98.30
2018-09-26T22:41:09.086Z,98.30
2018-09-26T22:43:11.265Z,98.30
2018-09-26T22:45:13.445Z,98.30
2018-09-26T22:47:15.616Z,98.30
2018-09-26T22:49:17.808Z,98.30
2018-09-26T22:51:19.978Z,98.30
2018-09-26T22:53:22.157Z,98.30
2018-09-26T22:55:24.395Z,98.30
2018-09-26T22:57:26.567Z,98.30
2018-09-26T22:59:28.739Z,98.30
2018-09-26T23:01:31.012Z,98.30
2018-09-26T23:03:33.379Z,98.30
2018-09-26T23:05:35.547Z,98.30
2018-09-26T23:07:38.055Z,98.30
2018-09-26T23:09:40.300Z,98.30
2018-09-26T23:11:42.482Z,98.30
2018-09-26T23:13:45.024Z,98.30
2018-09-26T23:15:47.216Z,98.30
2018-09-26T23:17:49.407Z,98.30
2018-09-26T23:19:51.804Z,98.30
2018-09-26T23:21:54.015Z,98.30
2018-09-26T23:23:56.183Z,98.30
2018-09-26T23:25:58.412Z,98.30
2018-09-26T23:28:00.572Z,98.30
2018-09-26T23:30:02.768Z,98.30
2018-09-26T23:32:04.936Z,98.30
2018-09-26T23:34:07.143Z,98.30
2018-09-26T23:36:09.322Z,98.30
2018-09-26T23:38:11.484Z,98.30
2018-09-26T23:40:13.666Z,98.30
2018-09-26T23:42:15.906Z,98.30
2018-09-26T23:44:18.101Z,98.30
2018-09-26T23:46:20.277Z,98.30
2018-09-26T23:48:22.473Z,98.30
2018-09-26T23:50:24.647Z,98.30
2018-09-26T23:52:26.822Z,98.30
2018-09-26T23:54:29.262Z,98.30
2018-09-26T23:56:31.468Z,98.30
2018-09-26T23:58:34.434Z,98.30
